Time;durP1;ratioP1;P1;durP2;ratioP2;P2;SDS_P1;SDS_P2;PMS_P1;PMS_P2;Temp;Humidity;BMP_temperature;BMP_pressure;BME280_temperature;BME280_humidity;BME280_pressure;Samples;Min_cycle;Max_cycle;Signal;HPM_P1;HPM_P2
2023/07/05 00:02:29;;;;;;;30.50;19.40;;;;;;;17.02;60.78;100624.61;107002;1255;96611;-82
2023/07/05 00:05:14;;;;;;;31.30;20.30;;;;;;;16.96;61.15;100625.17;106896;1254;96414;-82
2023/07/05 00:08:00;;;;;;;31.50;19.50;;;;;;;16.91;61.26;100628.05;106934;1254;99966;-83
2023/07/05 00:10:45;;;;;;;31.20;20.50;;;;;;;16.88;61.47;100627.20;106824;1258;99190;-83
2023/07/05 00:13:31;;;;;;;34.40;20.40;;;;;;;16.85;61.58;100627.92;107052;1255;99009;-82
2023/07/05 00:16:18;;;;;;;31.80;19.80;;;;;;;16.79;61.64;100626.80;107157;1256;96510;-83
2023/07/05 00:19:04;;;;;;;30.00;19.60;;;;;;;16.73;62.00;100631.58;107142;1254;96574;-83
2023/07/05 00:21:50;;;;;;;27.00;19.60;;;;;;;16.68;61.88;100632.71;106741;1254;100095;-82
2023/07/05 00:24:35;;;;;;;31.60;21.00;;;;;;;16.63;62.16;100631.64;106939;1256;99095;-82
2023/07/05 00:27:24;;;;;;;31.40;21.00;;;;;;;16.61;62.41;100634.08;107004;1256;98770;-81
2023/07/05 00:30:10;;;;;;;33.00;20.30;;;;;;;16.59;62.68;100635.23;107907;1256;96640;-82
2023/07/05 00:32:56;;;;;;;30.80;20.20;;;;;;;16.55;62.94;100635.85;106902;1254;98412;-82
2023/07/05 00:35:49;;;;;;;28.30;19.80;;;;;;;16.49;63.30;100635.11;106717;1255;99945;-82
2023/07/05 00:38:35;;;;;;;29.90;21.50;;;;;;;16.45;63.38;100636.59;106973;1258;100137;-82
2023/07/05 00:41:20;;;;;;;27.90;19.20;;;;;;;16.41;63.20;100637.71;107072;1257;97847;-82
2023/07/05 00:44:07;;;;;;;29.20;19.50;;;;;;;16.33;63.43;100635.73;106910;1253;96691;-82
2023/07/05 00:47:21;;;;;;;28.20;17.80;;;;;;;16.26;63.64;100634.91;106928;1253;97149;-83
2023/07/05 00:50:19;;;;;;;28.30;19.60;;;;;;;16.18;63.88;100632.40;106942;1258;101411;-82
2023/07/05 00:53:06;;;;;;;29.60;18.80;;;;;;;16.12;64.04;100634.96;107141;1256;100362;-82
2023/07/05 00:56:01;;;;;;;27.30;20.10;;;;;;;16.07;64.42;100634.27;106900;1257;97721;-82
2023/07/05 00:58:49;;;;;;;27.30;18.50;;;;;;;16.04;64.56;100634.28;106967;1255;95858;-82
2023/07/05 01:01:35;;;;;;;30.40;19.40;;;;;;;15.96;64.24;100635.35;106731;1259;97132;-82
2023/07/05 01:04:20;;;;;;;30.80;18.40;;;;;;;15.87;64.60;100632.35;106862;1258;100554;-81
2023/07/05 01:07:06;;;;;;;29.20;19.60;;;;;;;15.79;64.53;100632.20;106930;1256;99056;-83
2023/07/05 01:09:53;;;;;;;28.80;20.90;;;;;;;15.77;64.84;100629.81;106720;1260;97572;-83
2023/07/05 01:12:45;;;;;;;27.80;18.50;;;;;;;15.75;65.10;100632.23;107017;1256;96514;-83
2023/07/05 01:15:54;;;;;;;30.40;19.80;;;;;;;15.74;64.99;100628.25;107006;1255;97190;-81
2023/07/05 01:18:48;;;;;;;30.60;20.70;;;;;;;15.73;65.28;100628.92;107560;1254;100752;-81
2023/07/05 01:21:49;;;;;;;31.80;20.50;;;;;;;15.71;65.38;100627.56;106737;1259;99089;-81
2023/07/05 01:24:48;;;;;;;31.70;20.50;;;;;;;15.66;65.38;100625.28;106816;1256;98597;-81
2023/07/05 01:28:04;;;;;;;30.80;20.40;;;;;;;15.60;65.59;100624.33;106832;1255;96695;-81
2023/07/05 01:31:24;;;;;;;32.50;21.90;;;;;;;15.52;65.59;100623.35;106760;1256;96558;-82
2023/07/05 01:34:34;;;;;;;29.90;20.70;;;;;;;15.46;65.70;100623.72;106741;1255;99977;-82
2023/07/05 01:37:29;;;;;;;28.00;20.00;;;;;;;15.44;66.00;100624.89;106837;1255;100365;-82
2023/07/05 01:40:20;;;;;;;30.70;19.70;;;;;;;15.39;65.71;100623.32;106719;1257;97877;-81
2023/07/05 01:43:10;;;;;;;33.40;21.20;;;;;;;15.32;65.88;100623.98;106835;1259;96655;-81
2023/07/05 01:46:18;;;;;;;33.50;21.90;;;;;;;15.29;66.47;100618.52;106655;1259;96605;-81
2023/07/05 01:49:36;;;;;;;34.30;22.60;;;;;;;15.28;66.90;100612.67;106656;1258;99980;-81
2023/07/05 01:52:53;;;;;;;30.70;21.20;;;;;;;15.23;66.76;100612.75;106853;1254;99087;-82
2023/07/05 01:55:58;;;;;;;34.60;21.10;;;;;;;15.14;67.11;100621.06;106612;1258;98271;-83
2023/07/05 01:58:47;;;;;;;30.90;21.90;;;;;;;15.06;67.05;100627.03;106614;1260;96515;-83
2023/07/05 02:01:35;;;;;;;31.50;21.60;;;;;;;15.02;67.31;100628.13;106826;1258;96523;-82
2023/07/05 02:04:24;;;;;;;33.80;20.80;;;;;;;15.01;67.61;100627.76;106573;1261;100112;-81
2023/07/05 02:07:09;;;;;;;29.30;19.90;;;;;;;14.98;67.61;100634.63;106811;1261;99087;-82
2023/07/05 02:09:56;;;;;;;28.60;20.10;;;;;;;14.91;67.35;100637.06;106660;1255;98967;-83
2023/07/05 02:12:43;;;;;;;32.70;19.30;;;;;;;14.88;67.64;100634.73;106597;1260;96684;-83
2023/07/05 02:15:29;;;;;;;25.40;18.60;;;;;;;14.85;67.89;100636.13;106662;1256;96527;-82
2023/07/05 02:18:15;;;;;;;28.20;19.90;;;;;;;14.82;68.15;100641.20;106658;1260;101301;-82
2023/07/05 02:21:00;;;;;;;27.90;19.50;;;;;;;14.79;68.26;100639.85;106643;1256;99178;-82
2023/07/05 02:23:45;;;;;;;31.70;20.10;;;;;;;14.73;68.22;100641.66;106691;1258;97721;-82
2023/07/05 02:26:33;;;;;;;31.20;20.10;;;;;;;14.66;68.29;100647.10;106677;1256;96732;-82
2023/07/05 02:29:19;;;;;;;29.80;18.80;;;;;;;14.60;68.62;100648.58;106731;1256;96607;-81
2023/07/05 02:32:04;;;;;;;30.30;19.90;;;;;;;14.56;68.76;100646.48;106602;1255;101713;-82
2023/07/05 02:34:52;;;;;;;25.60;18.40;;;;;;;14.48;68.52;100648.20;106632;1260;100139;-82
2023/07/05 02:37:38;;;;;;;29.10;20.20;;;;;;;14.39;68.61;100651.45;106995;1254;97762;-83
2023/07/05 02:40:24;;;;;;;30.00;19.70;;;;;;;14.34;68.97;100651.23;106579;1261;97628;-82
2023/07/05 02:43:09;;;;;;;29.70;19.80;;;;;;;14.34;69.17;100654.11;106675;1256;97136;-83
2023/07/05 02:45:55;;;;;;;28.30;18.90;;;;;;;14.34;69.34;100659.91;106723;1256;99974;-81
2023/07/05 02:48:41;;;;;;;27.80;18.30;;;;;;;14.34;69.57;100658.17;106585;1254;99714;-81
2023/07/05 02:51:27;;;;;;;27.20;19.00;;;;;;;14.31;69.63;100661.27;106406;1254;97703;-82
2023/07/05 02:54:12;;;;;;;25.90;19.00;;;;;;;14.27;69.63;100665.27;106431;1261;96508;-82
2023/07/05 02:56:58;;;;;;;32.10;20.10;;;;;;;14.29;69.54;100662.30;106443;1258;96818;-83
2023/07/05 02:59:43;;;;;;;29.40;19.40;;;;;;;14.34;69.73;100663.94;106752;1259;99991;-82
2023/07/05 03:02:29;;;;;;;32.80;19.90;;;;;;;14.33;69.73;100663.89;106543;1269;99164;-83
2023/07/05 03:05:15;;;;;;;30.70;21.30;;;;;;;14.29;69.89;100662.27;106802;1258;97807;-82
2023/07/05 03:08:00;;;;;;;29.30;20.50;;;;;;;14.30;70.00;100663.05;106748;1258;97316;-82
2023/07/05 03:10:45;;;;;;;29.20;19.90;;;;;;;14.30;69.68;100658.58;106725;1259;97140;-82
2023/07/05 03:13:34;;;;;;;30.10;19.60;;;;;;;14.27;69.79;100654.80;106497;1254;100675;-82
2023/07/05 03:16:20;;;;;;;28.70;19.20;;;;;;;14.23;70.22;100656.40;106661;1259;100195;-82
2023/07/05 03:19:05;;;;;;;34.30;19.70;;;;;;;14.19;70.29;100655.95;106550;1254;97723;-81
2023/07/05 03:21:52;;;;;;;28.10;19.70;;;;;;;14.18;70.66;100656.61;106672;1259;96572;-82
2023/07/05 03:24:37;;;;;;;29.70;20.40;;;;;;;14.21;70.82;100661.71;106754;1259;96567;-82
2023/07/05 03:27:26;;;;;;;30.70;21.30;;;;;;;14.25;70.97;100662.70;106680;1259;101228;-82
2023/07/05 03:30:12;;;;;;;31.10;21.70;;;;;;;14.28;71.11;100663.52;106636;1254;99090;-82
2023/07/05 03:32:57;;;;;;;30.50;21.10;;;;;;;14.33;71.36;100667.50;106658;1257;97736;-82
2023/07/05 03:35:52;;;;;;;32.70;21.10;;;;;;;14.37;71.45;100660.91;106728;1259;96694;-81
2023/07/05 03:38:38;;;;;;;31.20;20.30;;;;;;;14.41;71.58;100661.30;106835;1255;96587;-82
2023/07/05 03:41:24;;;;;;;34.00;21.70;;;;;;;14.45;71.73;100660.89;106709;1258;100035;-81
2023/07/05 03:44:10;;;;;;;31.40;21.30;;;;;;;14.51;71.71;100658.48;106778;1255;99099;-81
2023/07/05 03:46:56;;;;;;;30.30;20.70;;;;;;;14.58;71.86;100661.70;106837;1259;98456;-82
2023/07/05 03:49:41;;;;;;;29.90;20.20;;;;;;;14.64;71.94;100663.13;106635;1260;96503;-82
2023/07/05 03:52:27;;;;;;;32.40;20.70;;;;;;;14.72;72.14;100664.27;106629;1259;97061;-82
2023/07/05 03:55:12;;;;;;;30.10;20.40;;;;;;;14.76;72.33;100662.59;106642;1262;101270;-82
2023/07/05 03:57:58;;;;;;;27.80;19.60;;;;;;;14.77;72.08;100657.61;106804;1258;100345;-82
2023/07/05 04:00:45;;;;;;;31.00;21.20;;;;;;;14.77;72.07;100657.56;106602;1259;97804;-82
2023/07/05 04:03:32;;;;;;;30.20;21.40;;;;;;;14.81;72.12;100660.27;106552;1259;96577;-82
2023/07/05 04:06:18;;;;;;;27.70;19.90;;;;;;;14.85;72.43;100665.38;106794;1259;97039;-83
2023/07/05 04:09:04;;;;;;;29.30;21.20;;;;;;;14.89;72.52;100668.85;106735;1266;100733;-83
2023/07/05 04:11:49;;;;;;;32.50;20.70;;;;;;;14.90;72.48;100672.71;106680;1254;99102;-83
2023/07/05 04:14:34;;;;;;;27.80;20.10;;;;;;;14.96;72.99;100669.87;106604;1261;97922;-83
2023/07/05 04:17:19;;;;;;;31.40;19.90;;;;;;;15.06;73.28;100669.66;106663;1256;96609;-83
2023/07/05 04:20:06;;;;;;;44.30;23.60;;;;;;;15.16;73.71;100675.59;106550;1254;96670;-84
2023/07/05 04:22:51;;;;;;;35.20;23.20;;;;;;;15.27;74.09;100671.89;106616;1254;99998;-82
2023/07/05 04:25:37;;;;;;;34.00;21.60;;;;;;;15.38;74.40;100671.96;106536;1259;99095;-81
2023/07/05 04:28:22;;;;;;;39.20;23.90;;;;;;;15.49;74.44;100674.74;106566;1254;97725;-82
2023/07/05 04:31:11;;;;;;;34.50;23.60;;;;;;;15.60;74.38;100673.05;106800;1254;96510;-82
2023/07/05 04:33:58;;;;;;;32.10;21.70;;;;;;;15.70;74.79;100672.36;106421;1260;95825;-82
2023/07/05 04:36:44;;;;;;;35.40;22.70;;;;;;;15.80;75.13;100669.48;106695;1254;100117;-82
2023/07/05 04:39:29;;;;;;;33.30;22.30;;;;;;;15.89;75.10;100675.06;106571;1254;100337;-82
2023/07/05 04:42:15;;;;;;;28.40;21.00;;;;;;;15.98;75.17;100673.37;106517;1259;99004;-81
2023/07/05 04:45:01;;;;;;;35.10;21.80;;;;;;;16.08;75.36;100672.00;106674;1260;96619;-82
2023/07/05 04:47:48;;;;;;;31.40;21.40;;;;;;;16.15;75.69;100679.67;106600;1254;96928;-81
2023/07/05 04:50:34;;;;;;;32.60;22.80;;;;;;;16.25;75.92;100679.59;106528;1260;100167;-82
2023/07/05 04:53:20;;;;;;;30.50;21.60;;;;;;;16.34;76.17;100681.41;106582;1257;99075;-83
2023/07/05 04:56:12;;;;;;;31.00;20.80;;;;;;;16.43;76.35;100678.39;106497;1254;100401;-82
2023/07/05 04:58:58;;;;;;;30.00;20.00;;;;;;;16.52;76.43;100679.77;106599;1260;96677;-81
2023/07/05 05:01:44;;;;;;;28.40;19.80;;;;;;;16.63;76.44;100684.90;106434;1257;96706;-82
2023/07/05 05:04:29;;;;;;;28.30;20.00;;;;;;;16.76;76.00;100689.30;106594;1259;101311;-82
2023/07/05 05:07:15;;;;;;;29.70;18.30;;;;;;;16.88;75.19;100684.63;106664;1254;99170;-81
2023/07/05 05:10:03;;;;;;;30.60;19.20;;;;;;;17.01;74.78;100686.30;106405;1260;97785;-80
2023/07/05 05:12:48;;;;;;;31.70;19.20;;;;;;;17.16;74.31;100683.48;106400;1259;96711;-83
2023/07/05 05:15:38;;;;;;;30.60;18.90;;;;;;;17.29;74.21;100682.07;106310;1257;97119;-83
2023/07/05 05:18:26;;;;;;;28.30;18.60;;;;;;;17.43;74.31;100685.88;106348;1254;101256;-82
2023/07/05 05:21:12;;;;;;;33.50;19.90;;;;;;;17.58;74.29;100686.20;106368;1252;100301;-83
2023/07/05 05:23:57;;;;;;;31.90;17.70;;;;;;;17.72;74.11;100688.76;106298;1261;98631;-83
2023/07/05 05:26:42;;;;;;;28.20;16.40;;;;;;;17.85;73.90;100690.73;106385;1254;96528;-83
2023/07/05 05:29:29;;;;;;;28.30;18.20;;;;;;;17.98;73.79;100685.08;106314;1259;96714;-83
2023/07/05 05:32:15;;;;;;;26.00;18.00;;;;;;;18.09;73.95;100686.98;106256;1254;100001;-83
2023/07/05 05:35:00;;;;;;;25.80;17.40;;;;;;;18.19;74.19;100693.80;106213;1254;100350;-83
2023/07/05 05:37:46;;;;;;;28.80;16.30;;;;;;;18.30;73.96;100695.10;106522;1254;98989;-84
2023/07/05 05:40:33;;;;;;;28.70;17.10;;;;;;;18.40;73.70;100691.66;106339;1255;97954;-83
2023/07/05 05:43:19;;;;;;;25.60;16.20;;;;;;;18.52;73.90;100689.84;106362;1254;98470;-82
2023/07/05 05:46:04;;;;;;;28.90;16.00;;;;;;;18.64;73.15;100691.38;106455;1254;101398;-84
2023/07/05 05:48:50;;;;;;;25.50;15.20;;;;;;;18.76;73.02;100688.06;106214;1254;99287;-84
2023/07/05 05:51:35;;;;;;;26.40;15.70;;;;;;;18.91;73.13;100688.27;106452;1256;97935;-84
2023/07/05 05:54:21;;;;;;;31.60;14.50;;;;;;;19.05;72.56;100689.89;106235;1262;97940;-84
2023/07/05 05:57:08;;;;;;;21.40;13.30;;;;;;;19.19;71.50;100688.40;106226;1255;97805;-84
2023/07/05 05:59:53;;;;;;;21.90;12.90;;;;;;;19.33;70.21;100683.41;106274;1254;101354;-85
2023/07/05 06:02:39;;;;;;;21.00;11.80;;;;;;;19.44;69.67;100684.13;106329;1254;99068;-83
2023/07/05 06:05:25;;;;;;;30.40;13.80;;;;;;;19.56;69.27;100687.95;106200;1271;98416;-83
2023/07/05 06:08:11;;;;;;;21.40;12.00;;;;;;;19.69;68.77;100686.45;106363;1257;97955;-84
2023/07/05 06:10:58;;;;;;;18.40;11.90;;;;;;;19.82;68.27;100686.58;106547;1254;98396;-85
2023/07/05 06:13:44;;;;;;;20.60;12.40;;;;;;;19.95;67.82;100681.11;107445;1254;101672;-83
2023/07/05 06:16:29;;;;;;;21.40;13.10;;;;;;;20.07;67.62;100676.63;106266;1258;99098;-84
2023/07/05 06:19:17;;;;;;;22.40;11.20;;;;;;;20.22;67.08;100677.88;106243;1254;97957;-83
2023/07/05 06:22:03;;;;;;;14.60;10.50;;;;;;;20.35;66.84;100675.32;106325;1254;98028;-84
2023/07/05 06:24:48;;;;;;;14.20;10.40;;;;;;;20.49;66.29;100670.67;106527;1257;98637;-84
2023/07/05 06:27:34;;;;;;;16.00;11.00;;;;;;;20.64;66.15;100666.10;106221;1257;101366;-84
2023/07/05 06:30:20;;;;;;;16.70;10.30;;;;;;;20.76;64.87;100668.23;106489;1262;100314;-84
2023/07/05 06:33:06;;;;;;;21.00;9.80;;;;;;;20.88;64.20;100667.53;106275;1257;98050;-83
2023/07/05 06:35:53;;;;;;;15.80;9.50;;;;;;;21.00;63.45;100666.77;106332;1254;98161;-83
2023/07/05 06:38:38;;;;;;;14.90;9.30;;;;;;;21.12;63.52;100667.15;106281;1257;97842;-82
2023/07/05 06:41:24;;;;;;;14.50;9.50;;;;;;;21.24;63.21;100665.17;106083;1263;101327;-82
2023/07/05 06:44:09;;;;;;;14.90;9.00;;;;;;;21.34;62.06;100663.88;106308;1257;100182;-83
2023/07/05 06:46:55;;;;;;;12.40;8.90;;;;;;;21.49;62.28;100663.71;106158;1254;97968;-83
2023/07/05 06:49:40;;;;;;;14.00;8.20;;;;;;;21.60;62.18;100665.36;106152;1262;97932;-83
2023/07/05 06:52:26;;;;;;;15.20;6.60;;;;;;;21.71;60.09;100670.48;106207;1258;97853;-84
2023/07/05 06:55:12;;;;;;;12.10;8.40;;;;;;;21.82;59.12;100672.55;106835;1254;101393;-84
2023/07/05 06:57:57;;;;;;;21.00;9.80;;;;;;;21.94;59.02;100670.83;106640;1254;99670;-84
2023/07/05 07:00:48;;;;;;;15.40;8.70;;;;;;;22.05;58.97;100666.29;106186;1258;98230;-82
2023/07/05 07:03:33;;;;;;;16.90;9.30;;;;;;;22.14;58.63;100665.66;106300;1254;98045;-84
2023/07/05 07:06:19;;;;;;;13.80;8.40;;;;;;;22.25;58.54;100666.94;106328;1254;97834;-83
2023/07/05 07:09:06;;;;;;;17.60;8.20;;;;;;;22.35;58.33;100666.31;106280;1260;101343;-84
2023/07/05 07:11:51;;;;;;;13.90;8.20;;;;;;;22.46;57.00;100666.49;106548;1254;99218;-82
2023/07/05 07:14:37;;;;;;;12.90;7.60;;;;;;;22.54;57.11;100665.49;106572;1255;98645;-83
2023/07/05 07:17:23;;;;;;;15.30;8.70;;;;;;;22.64;56.72;100667.55;106287;1254;97974;-83
2023/07/05 07:20:09;;;;;;;14.10;8.50;;;;;;;22.73;56.37;100665.65;106169;1257;98049;-82
2023/07/05 07:22:55;;;;;;;12.90;8.40;;;;;;;22.83;56.01;100661.83;106360;1254;102847;-82
2023/07/05 07:25:40;;;;;;;16.00;8.90;;;;;;;22.90;55.84;100659.56;106266;1256;100321;-83
2023/07/05 07:28:26;;;;;;;17.40;8.80;;;;;;;22.99;55.71;100662.34;106239;1257;98495;-83
2023/07/05 07:31:17;;;;;;;18.80;10.10;;;;;;;23.11;56.00;100660.27;106409;1254;97958;-82
2023/07/05 07:34:07;;;;;;;16.20;9.70;;;;;;;23.21;55.54;100661.77;106508;1254;97890;-82
2023/07/05 07:36:52;;;;;;;14.00;9.50;;;;;;;23.30;55.64;100664.10;106624;1256;102589;-83
2023/07/05 07:39:38;;;;;;;18.50;10.20;;;;;;;23.39;55.14;100659.84;106390;1254;99916;-83
2023/07/05 07:42:23;;;;;;;18.50;10.40;;;;;;;23.47;54.38;100654.33;106418;1259;99002;-83
2023/07/05 07:45:09;;;;;;;20.40;10.50;;;;;;;23.53;53.63;100652.92;106341;1254;98049;-83
2023/07/05 07:47:55;;;;;;;12.60;10.40;;;;;;;23.58;53.16;100653.53;106213;1254;98557;-82
2023/07/05 07:50:48;;;;;;;14.10;9.30;;;;;;;23.67;52.91;100655.07;106613;1257;101897;-84
2023/07/05 07:53:33;;;;;;;17.30;10.00;;;;;;;23.76;52.62;100654.00;107020;1257;99858;-83
2023/07/05 07:56:21;;;;;;;21.20;10.00;;;;;;;23.84;52.20;100650.89;106688;1254;97946;-82
2023/07/05 07:59:06;;;;;;;17.60;9.90;;;;;;;23.91;51.05;100647.13;108591;1253;95525;-83
2023/07/05 08:01:53;;;;;;;21.40;10.30;;;;;;;23.98;50.67;100648.16;108358;1254;95800;-83
2023/07/05 08:04:47;;;;;;;18.50;10.50;;;;;;;24.07;50.17;100646.82;106323;1254;102569;-83
2023/07/05 08:07:33;;;;;;;21.70;15.10;;;;;;;24.17;50.49;100643.27;106274;1255;99061;-83
2023/07/05 08:10:20;;;;;;;18.40;11.10;;;;;;;24.28;49.79;100646.20;106518;1254;98979;-84
2023/07/05 08:13:05;;;;;;;19.50;10.30;;;;;;;24.37;49.65;100640.11;106334;1254;98029;-83
2023/07/05 08:15:51;;;;;;;16.40;9.70;;;;;;;24.47;49.27;100637.90;106352;1257;97890;-84
2023/07/05 08:18:37;;;;;;;15.40;9.20;;;;;;;24.59;48.27;100638.75;106589;1254;101335;-83
2023/07/05 08:21:22;;;;;;;17.60;10.80;;;;;;;24.68;47.82;100638.19;106376;1256;99757;-82
2023/07/05 08:24:08;;;;;;;18.00;10.70;;;;;;;24.75;46.91;100634.40;106264;1255;98381;-85
2023/07/05 08:26:54;;;;;;;17.60;11.10;;;;;;;24.82;46.33;100628.14;106443;1254;97745;-82
2023/07/05 08:29:41;;;;;;;16.70;10.20;;;;;;;24.90;46.27;100624.71;106625;1254;98502;-82
2023/07/05 08:32:26;;;;;;;18.50;10.60;;;;;;;24.97;46.11;100621.34;106663;1257;101922;-83
2023/07/05 08:35:12;;;;;;;17.10;11.50;;;;;;;25.05;45.59;100617.13;106858;1257;99059;-84
2023/07/05 08:37:58;;;;;;;17.90;11.40;;;;;;;25.13;45.44;100622.14;106468;1254;97993;-85
2023/07/05 08:40:49;;;;;;;16.20;10.70;;;;;;;25.21;44.97;100612.61;106609;1258;97874;-81
2023/07/05 08:43:41;;;;;;;16.50;11.50;;;;;;;25.27;44.90;100607.20;106304;1254;98486;-82
2023/07/05 08:46:27;;;;;;;17.10;11.40;;;;;;;25.36;44.97;100605.89;106372;1259;102550;-85
2023/07/05 08:49:22;;;;;;;15.60;11.90;;;;;;;25.44;44.84;100606.24;106121;1254;99349;-83
2023/07/05 08:52:35;;;;;;;17.20;12.30;;;;;;;25.52;44.59;100607.30;106183;1260;99012;-83
2023/07/05 08:55:29;;;;;;;15.70;12.60;;;;;;;25.61;44.38;100605.19;106197;1256;97845;-85
2023/07/05 08:58:21;;;;;;;17.80;12.50;;;;;;;25.72;44.04;100603.91;106430;1255;98407;-82
2023/07/05 09:01:26;;;;;;;17.40;12.10;;;;;;;25.79;43.55;100597.48;106665;1257;102003;-87
2023/07/05 09:04:20;;;;;;;18.60;13.10;;;;;;;25.84;43.19;100594.84;106538;1258;99080;-82
2023/07/05 09:07:18;;;;;;;24.70;13.00;;;;;;;25.87;43.07;100586.65;106324;1254;97856;-82
2023/07/05 09:10:21;;;;;;;19.30;11.80;;;;;;;25.94;43.54;100585.81;106456;1257;97973;-86
2023/07/05 09:13:22;;;;;;;18.10;13.00;;;;;;;26.06;44.00;100583.86;106233;1260;98484;-83
2023/07/05 09:16:42;;;;;;;15.70;12.40;;;;;;;26.15;42.74;100590.10;106635;1257;103184;-82
2023/07/05 09:19:35;;;;;;;16.80;11.80;;;;;;;26.23;42.49;100585.52;106563;1258;99182;-82
2023/07/05 09:22:27;;;;;;;21.00;13.30;;;;;;;26.31;42.13;100581.80;106826;1254;97946;-84
2023/07/05 09:25:16;;;;;;;16.90;12.60;;;;;;;26.35;41.79;100579.29;106360;1254;97983;-82
2023/07/05 09:28:32;;;;;;;20.20;12.80;;;;;;;26.40;41.76;100573.36;106421;1253;98469;-84
2023/07/05 09:31:17;;;;;;;21.80;13.50;;;;;;;26.46;42.14;100575.27;106599;1257;102088;-81
2023/07/05 09:34:28;;;;;;;22.50;13.50;;;;;;;26.51;41.58;100572.41;106292;1255;99064;-81
2023/07/05 09:37:22;;;;;;;20.80;13.60;;;;;;;26.56;41.12;100567.85;106575;1254;97951;-85
2023/07/05 09:40:23;;;;;;;19.80;14.80;;;;;;;26.57;40.93;100570.86;106326;1257;98824;-85
2023/07/05 09:43:27;;;;;;;18.40;14.00;;;;;;;26.58;40.53;100573.36;106518;1259;97884;-83
2023/07/05 09:46:25;;;;;;;18.30;13.60;;;;;;;26.64;40.98;100569.12;106310;1258;102157;-82
2023/07/05 09:49:16;;;;;;;18.40;14.00;;;;;;;26.75;40.47;100568.09;106279;1254;99730;-83
2023/07/05 09:52:02;;;;;;;18.50;13.50;;;;;;;26.81;40.53;100564.27;106306;1254;98542;-88
2023/07/05 09:54:50;;;;;;;18.70;13.50;;;;;;;26.89;40.56;100561.71;106595;1260;97905;-82
2023/07/05 09:57:38;;;;;;;19.80;14.30;;;;;;;26.98;40.15;100560.35;106858;1254;97999;-83
2023/07/05 10:00:35;;;;;;;22.50;15.40;;;;;;;27.08;40.21;100562.80;106856;1254;102093;-80
2023/07/05 10:03:21;;;;;;;20.40;13.90;;;;;;;27.19;40.17;100556.81;106426;1257;99075;-83
2023/07/05 10:06:11;;;;;;;18.10;13.50;;;;;;;27.29;40.31;100554.46;106378;1257;97993;-86
2023/07/05 10:09:09;;;;;;;21.10;14.30;;;;;;;27.40;39.77;100553.49;106165;1256;98724;-83
2023/07/05 10:11:59;;;;;;;18.20;13.70;;;;;;;27.44;39.25;100544.23;106371;1254;98811;-82
2023/07/05 10:14:54;;;;;;;19.00;14.50;;;;;;;27.50;39.86;100538.59;106194;1258;109968;-82
2023/07/05 10:17:44;;;;;;;18.70;13.80;;;;;;;27.60;39.74;100534.47;106329;1254;99746;-87
2023/07/05 10:20:38;;;;;;;18.50;15.10;;;;;;;27.68;39.22;100531.52;106309;1254;106804;-81
2023/07/05 10:23:25;;;;;;;17.30;14.20;;;;;;;27.73;39.11;100526.43;106381;1258;97960;-84
2023/07/05 10:26:11;;;;;;;16.60;14.00;;;;;;;27.82;39.16;100527.64;106338;1260;98501;-82
2023/07/05 10:29:08;;;;;;;18.60;14.40;;;;;;;27.94;38.97;100526.16;106596;1254;101576;-84
2023/07/05 10:31:57;;;;;;;22.70;15.00;;;;;;;28.02;38.69;100526.16;106847;1254;100145;-81
2023/07/05 10:34:43;;;;;;;19.10;15.00;;;;;;;28.07;38.58;100527.20;106400;1255;98377;-83
2023/07/05 10:37:33;;;;;;;19.30;14.10;;;;;;;28.10;38.73;100521.98;106397;1260;97882;-84
2023/07/05 10:40:21;;;;;;;17.50;14.40;;;;;;;28.15;38.27;100526.06;106559;1254;97961;-82
2023/07/05 10:43:07;;;;;;;19.30;14.60;;;;;;;28.20;38.07;100522.39;106526;1255;102634;-84
2023/07/05 10:45:53;;;;;;;19.50;14.80;;;;;;;28.24;38.29;100520.11;106453;1254;99189;-80
2023/07/05 10:48:43;;;;;;;19.10;14.30;;;;;;;28.30;37.98;100515.48;106397;1254;98056;-83
2023/07/05 10:51:35;;;;;;;17.60;13.10;;;;;;;28.39;38.09;100518.86;106468;1254;97883;-82
2023/07/05 10:54:42;;;;;;;18.10;13.80;;;;;;;28.49;37.86;100515.23;107215;1254;98357;-82
2023/07/05 10:57:43;;;;;;;14.90;12.80;;;;;;;28.54;37.85;100508.27;107283;1257;101324;-81
2023/07/05 11:00:39;;;;;;;17.30;12.30;;;;;;;28.56;37.94;100503.63;106991;1256;99231;-82
2023/07/05 11:03:42;;;;;;;19.80;14.20;;;;;;;28.61;37.77;100505.65;107137;1257;97849;-82
2023/07/05 11:06:28;;;;;;;17.50;12.60;;;;;;;28.68;37.95;100500.44;107284;1252;97960;-82
2023/07/05 11:09:13;;;;;;;20.00;13.00;;;;;;;28.77;38.26;100497.31;107047;1255;97997;-81
2023/07/05 11:12:04;;;;;;;18.20;13.50;;;;;;;28.89;37.78;100493.35;107127;1255;101936;-81
2023/07/05 11:14:51;;;;;;;17.50;12.40;;;;;;;29.04;37.56;100488.91;107295;1254;99779;-82
2023/07/05 11:17:37;;;;;;;18.40;14.40;;;;;;;29.19;38.34;100493.21;107094;1254;98558;-82
2023/07/05 11:20:43;;;;;;;18.10;13.30;;;;;;;29.30;37.68;100490.34;107025;1253;96564;-82
2023/07/05 11:23:41;;;;;;;16.00;11.80;;;;;;;29.42;37.03;100487.96;107261;1254;97736;-82
2023/07/05 11:26:36;;;;;;;18.00;11.80;;;;;;;29.52;36.95;100483.62;107295;1253;101323;-82
2023/07/05 11:29:28;;;;;;;16.80;13.40;;;;;;;29.58;36.07;100482.69;107410;1257;100328;-82
2023/07/05 11:32:14;;;;;;;15.00;12.50;;;;;;;29.53;35.62;100473.01;107329;1253;98922;-81
2023/07/05 11:35:03;;;;;;;21.60;12.40;;;;;;;29.50;36.05;100466.55;107265;1254;97948;-82
2023/07/05 11:37:49;;;;;;;23.50;12.40;;;;;;;29.54;35.85;100461.82;107109;1254;98622;-82
2023/07/05 11:40:58;;;;;;;16.50;13.00;;;;;;;29.58;35.69;100456.40;107369;1254;102631;-82
2023/07/05 11:43:55;;;;;;;16.30;12.50;;;;;;;29.62;35.36;100451.95;107573;1254;99069;-82
2023/07/05 11:46:45;;;;;;;14.30;12.60;;;;;;;29.53;35.37;100449.86;107308;1254;98414;-81
2023/07/05 11:49:34;;;;;;;15.40;12.50;;;;;;;29.51;35.68;100446.55;107237;1253;98041;-82
2023/07/05 11:52:26;;;;;;;15.90;12.50;;;;;;;29.58;35.37;100443.23;107343;1254;98353;-82
2023/07/05 11:55:27;;;;;;;15.10;12.10;;;;;;;29.65;35.65;100438.09;107341;1253;102612;-81
2023/07/05 11:58:18;;;;;;;;;;;;;;;29.66;35.78;100433.33;108161;1254;100068;-82
2023/07/05 12:01:10;;;;;;;15.70;12.60;;;;;;;29.60;35.37;100431.62;107035;1258;97908;-81
2023/07/05 12:04:02;;;;;;;15.50;11.70;;;;;;;29.54;35.49;100422.52;107265;1254;96236;-80
2023/07/05 12:06:50;;;;;;;17.50;12.70;;;;;;;29.59;35.73;100415.53;107306;1254;99079;-81
2023/07/05 12:09:42;;;;;;;20.70;13.00;;;;;;;29.73;35.74;100412.86;107309;1255;102179;-80
2023/07/05 12:12:28;;;;;;;16.50;11.80;;;;;;;29.85;35.48;100409.30;107049;1254;99844;-80
2023/07/05 12:15:14;;;;;;;15.10;11.10;;;;;;;29.97;35.65;100400.80;106758;1254;97932;-81
2023/07/05 12:18:02;;;;;;;18.00;11.70;;;;;;;30.05;35.07;100397.88;106553;1254;97893;-84
2023/07/05 12:20:53;;;;;;;16.50;11.60;;;;;;;30.12;35.11;100394.06;108378;1257;95758;-85
2023/07/05 12:23:39;;;;;;;18.80;11.80;;;;;;;30.23;35.08;100388.27;106933;1261;101345;-80
2023/07/05 12:26:31;;;;;;;12.40;10.20;;;;;;;30.33;34.57;100378.98;106647;1257;101457;-82
2023/07/05 12:29:25;;;;;;;13.60;11.30;;;;;;;30.40;34.12;100375.05;106327;1254;98195;-83
2023/07/05 12:32:17;;;;;;;15.80;10.80;;;;;;;30.46;34.42;100368.17;106517;1253;97980;-84
2023/07/05 12:35:06;;;;;;;16.90;11.40;;;;;;;30.49;34.14;100364.66;106229;1257;97836;-85
2023/07/05 12:37:56;;;;;;;14.20;11.50;;;;;;;30.47;34.17;100352.01;106136;1254;102373;-85
2023/07/05 12:40:42;;;;;;;;;;;;;;;30.43;34.00;100350.09;107079;1254;99665;-80
2023/07/05 12:43:29;;;;;;;15.40;10.90;;;;;;;30.45;34.12;100346.97;107226;1256;98560;-80